sensor_id;sensor_type;location;lat;lon;timestamp;pressure;altitude;pressure_sealevel;temperature;humidity
22025;BME280;11176;51.448;6.650;2022-08-19T00:01:27;45220.38;;;-141.29;84.27
22025;BME280;11176;51.448;6.650;2022-08-19T00:04:02;45216.38;;;-141.29;84.31
22025;BME280;11176;51.448;6.650;2022-08-19T00:06:30;45220.38;;;-141.29;84.53
22025;BME280;11176;51.448;6.650;2022-08-19T00:08:57;45222.38;;;-141.29;84.62
22025;BME280;11176;51.448;6.650;2022-08-19T00:11:27;45214.38;;;-141.29;84.79
22025;BME280;11176;51.448;6.650;2022-08-19T00:13:55;45232.38;;;-141.29;84.77
22025;BME280;11176;51.448;6.650;2022-08-19T00:16:23;45224.38;;;-141.29;84.92
22025;BME280;11176;51.448;6.650;2022-08-19T00:18:52;45232.38;;;-141.29;84.98
22025;BME280;11176;51.448;6.650;2022-08-19T00:21:19;45222.38;;;-141.29;85.19
22025;BME280;11176;51.448;6.650;2022-08-19T00:23:46;45234.38;;;-141.29;85.32
22025;BME280;11176;51.448;6.650;2022-08-19T00:26:13;45214.38;;;-141.29;85.45
22025;BME280;11176;51.448;6.650;2022-08-19T00:28:39;45230.38;;;-141.29;85.53
22025;BME280;11176;51.448;6.650;2022-08-19T00:31:08;45238.38;;;-141.29;85.53
22025;BME280;11176;51.448;6.650;2022-08-19T00:33:35;45238.38;;;-141.29;85.74
22025;BME280;11176;51.448;6.650;2022-08-19T00:36:06;45220.38;;;-141.29;85.84
22025;BME280;11176;51.448;6.650;2022-08-19T00:38:34;45218.38;;;-141.29;86.00
22025;BME280;11176;51.448;6.650;2022-08-19T00:41:06;45242.34;;;-141.29;86.19
22025;BME280;11176;51.448;6.650;2022-08-19T00:43:33;45234.38;;;-141.29;86.36
22025;BME280;11176;51.448;6.650;2022-08-19T00:46:00;45230.38;;;-141.29;86.53
22025;BME280;11176;51.448;6.650;2022-08-19T00:48:31;45246.34;;;-141.29;86.65
22025;BME280;11176;51.448;6.650;2022-08-19T00:50:58;45222.38;;;-141.29;86.81
22025;BME280;11176;51.448;6.650;2022-08-19T00:53:27;45220.38;;;-141.29;86.96
22025;BME280;11176;51.448;6.650;2022-08-19T00:55:56;45224.38;;;-141.29;87.03
22025;BME280;11176;51.448;6.650;2022-08-19T00:58:29;45234.38;;;-141.29;87.12
22025;BME280;11176;51.448;6.650;2022-08-19T01:00:56;45234.38;;;-141.29;87.23
22025;BME280;11176;51.448;6.650;2022-08-19T01:03:23;45238.38;;;-141.29;87.34
22025;BME280;11176;51.448;6.650;2022-08-19T01:05:51;45238.38;;;-141.29;87.49
22025;BME280;11176;51.448;6.650;2022-08-19T01:08:19;45254.34;;;-141.29;87.49
22025;BME280;11176;51.448;6.650;2022-08-19T01:10:54;45250.34;;;-141.29;87.47
22025;BME280;11176;51.448;6.650;2022-08-19T01:13:25;45246.34;;;-141.29;87.61
22025;BME280;11176;51.448;6.650;2022-08-19T01:16:08;45238.38;;;-141.29;87.58
22025;BME280;11176;51.448;6.650;2022-08-19T01:18:38;45234.38;;;-141.29;87.65
22025;BME280;11176;51.448;6.650;2022-08-19T01:21:10;45246.34;;;-141.29;87.70
22025;BME280;11176;51.448;6.650;2022-08-19T01:23:43;45240.34;;;-141.29;88.01
22025;BME280;11176;51.448;6.650;2022-08-19T01:26:15;45230.38;;;-141.29;88.26
22025;BME280;11176;51.448;6.650;2022-08-19T01:28:45;45244.34;;;-141.29;88.34
22025;BME280;11176;51.448;6.650;2022-08-19T01:31:15;45234.38;;;-141.29;88.38
22025;BME280;11176;51.448;6.650;2022-08-19T01:33:54;45224.38;;;-141.29;88.55
22025;BME280;11176;51.448;6.650;2022-08-19T01:36:29;45258.34;;;-141.29;88.63
22025;BME280;11176;51.448;6.650;2022-08-19T01:38:58;45240.34;;;-141.29;88.56
22025;BME280;11176;51.448;6.650;2022-08-19T01:41:25;45244.34;;;-141.29;88.87
22025;BME280;11176;51.448;6.650;2022-08-19T01:43:53;45240.34;;;-141.29;88.94
22025;BME280;11176;51.448;6.650;2022-08-19T01:46:41;45244.34;;;-141.29;89.21
22025;BME280;11176;51.448;6.650;2022-08-19T01:49:08;45258.34;;;-141.29;89.45
22025;BME280;11176;51.448;6.650;2022-08-19T01:51:34;45252.34;;;-141.29;89.54
22025;BME280;11176;51.448;6.650;2022-08-19T01:54:07;45244.34;;;-141.29;89.71
22025;BME280;11176;51.448;6.650;2022-08-19T01:56:33;45258.34;;;-141.29;89.83
22025;BME280;11176;51.448;6.650;2022-08-19T01:59:03;45246.34;;;-141.29;89.96
22025;BME280;11176;51.448;6.650;2022-08-19T02:01:30;45266.34;;;-141.29;89.90
22025;BME280;11176;51.448;6.650;2022-08-19T02:04:01;45258.34;;;-141.29;90.04
22025;BME280;11176;51.448;6.650;2022-08-19T02:06:28;45246.34;;;-141.29;90.20
22025;BME280;11176;51.448;6.650;2022-08-19T02:08:55;45256.34;;;-141.29;90.15
22025;BME280;11176;51.448;6.650;2022-08-19T02:11:28;45260.34;;;-141.29;90.25
22025;BME280;11176;51.448;6.650;2022-08-19T02:13:58;45250.34;;;-141.29;90.28
22025;BME280;11176;51.448;6.650;2022-08-19T02:16:25;45270.34;;;-141.29;90.18
22025;BME280;11176;51.448;6.650;2022-08-19T02:18:51;45270.34;;;-141.29;90.27
22025;BME280;11176;51.448;6.650;2022-08-19T02:21:19;45258.34;;;-141.29;90.32
22025;BME280;11176;51.448;6.650;2022-08-19T02:23:47;45266.34;;;-141.29;90.53
22025;BME280;11176;51.448;6.650;2022-08-19T02:26:14;45262.34;;;-141.29;90.44
22025;BME280;11176;51.448;6.650;2022-08-19T02:28:41;45256.34;;;-141.29;90.49
22025;BME280;11176;51.448;6.650;2022-08-19T02:31:13;45258.34;;;-141.29;90.43
22025;BME280;11176;51.448;6.650;2022-08-19T02:33:41;45258.34;;;-141.29;90.60
22025;BME280;11176;51.448;6.650;2022-08-19T02:36:10;45254.34;;;-141.29;90.81
22025;BME280;11176;51.448;6.650;2022-08-19T02:38:37;45258.34;;;-141.29;91.14
22025;BME280;11176;51.448;6.650;2022-08-19T02:41:08;45270.34;;;-141.29;91.40
22025;BME280;11176;51.448;6.650;2022-08-19T02:43:37;45250.34;;;-141.29;91.86
22025;BME280;11176;51.448;6.650;2022-08-19T02:46:21;45258.34;;;-141.29;92.23
22025;BME280;11176;51.448;6.650;2022-08-19T02:48:49;45266.34;;;-141.29;92.40
22025;BME280;11176;51.448;6.650;2022-08-19T02:51:29;45250.34;;;-141.29;92.28
22025;BME280;11176;51.448;6.650;2022-08-19T02:53:56;45270.34;;;-141.29;92.77
22025;BME280;11176;51.448;6.650;2022-08-19T02:56:23;45246.34;;;-141.29;92.82
22025;BME280;11176;51.448;6.650;2022-08-19T02:58:54;45258.34;;;-141.29;92.69
22025;BME280;11176;51.448;6.650;2022-08-19T03:01:27;45250.34;;;-141.29;92.85
22025;BME280;11176;51.448;6.650;2022-08-19T03:03:55;45250.34;;;-141.29;93.01
22025;BME280;11176;51.448;6.650;2022-08-19T03:06:23;45250.34;;;-141.29;93.04
22025;BME280;11176;51.448;6.650;2022-08-19T03:08:50;45262.34;;;-141.29;93.46
22025;BME280;11176;51.448;6.650;2022-08-19T03:11:20;45270.34;;;-141.29;93.48
22025;BME280;11176;51.448;6.650;2022-08-19T03:13:47;45250.34;;;-141.29;93.66
22025;BME280;11176;51.448;6.650;2022-08-19T03:16:15;45264.34;;;-141.29;94.21
22025;BME280;11176;51.448;6.650;2022-08-19T03:18:42;45260.34;;;-141.29;94.43
22025;BME280;11176;51.448;6.650;2022-08-19T03:21:10;45238.38;;;-141.29;94.50
22025;BME280;11176;51.448;6.650;2022-08-19T03:23:40;45248.34;;;-141.29;94.78
22025;BME280;11176;51.448;6.650;2022-08-19T03:26:07;45238.38;;;-141.29;94.75
22025;BME280;11176;51.448;6.650;2022-08-19T03:28:44;45270.34;;;-141.29;94.67
22025;BME280;11176;51.448;6.650;2022-08-19T03:31:21;45250.34;;;-141.29;94.45
22025;BME280;11176;51.448;6.650;2022-08-19T03:34:14;45254.34;;;-141.29;94.30
22025;BME280;11176;51.448;6.650;2022-08-19T03:36:41;45270.34;;;-141.29;94.20
22025;BME280;11176;51.448;6.650;2022-08-19T03:39:09;45262.34;;;-141.29;93.88
22025;BME280;11176;51.448;6.650;2022-08-19T03:41:38;45266.34;;;-141.29;93.59
22025;BME280;11176;51.448;6.650;2022-08-19T03:44:17;45262.34;;;-141.29;93.30
22025;BME280;11176;51.448;6.650;2022-08-19T03:47:03;45262.34;;;-141.29;93.17
22025;BME280;11176;51.448;6.650;2022-08-19T03:49:31;45254.34;;;-141.29;93.17
22025;BME280;11176;51.448;6.650;2022-08-19T03:51:59;45264.34;;;-141.29;92.92
22025;BME280;11176;51.448;6.650;2022-08-19T03:54:31;45268.34;;;-141.29;92.94
22025;BME280;11176;51.448;6.650;2022-08-19T03:56:57;45258.34;;;-141.29;92.79
22025;BME280;11176;51.448;6.650;2022-08-19T03:59:27;45250.34;;;-141.29;92.97
22025;BME280;11176;51.448;6.650;2022-08-19T04:01:56;45256.34;;;-141.29;93.00
22025;BME280;11176;51.448;6.650;2022-08-19T04:04:23;45260.34;;;-141.29;92.96
22025;BME280;11176;51.448;6.650;2022-08-19T04:06:54;45250.34;;;-141.29;93.03
22025;BME280;11176;51.448;6.650;2022-08-19T04:09:21;45250.34;;;-141.29;93.24
22025;BME280;11176;51.448;6.650;2022-08-19T04:11:50;45264.34;;;-141.29;93.26
22025;BME280;11176;51.448;6.650;2022-08-19T04:14:22;45278.31;;;-141.29;93.48
22025;BME280;11176;51.448;6.650;2022-08-19T04:16:51;45274.34;;;-141.29;93.48
22025;BME280;11176;51.448;6.650;2022-08-19T04:19:19;45260.34;;;-141.29;93.68
22025;BME280;11176;51.448;6.650;2022-08-19T04:21:48;45260.34;;;-141.29;93.76
22025;BME280;11176;51.448;6.650;2022-08-19T04:24:15;45254.34;;;-141.29;94.11
22025;BME280;11176;51.448;6.650;2022-08-19T04:26:42;45272.34;;;-141.29;94.20
22025;BME280;11176;51.448;6.650;2022-08-19T04:29:13;45282.31;;;-141.29;94.32
22025;BME280;11176;51.448;6.650;2022-08-19T04:31:40;45278.31;;;-141.29;94.70
22025;BME280;11176;51.448;6.650;2022-08-19T04:34:09;45266.34;;;-141.29;94.79
22025;BME280;11176;51.448;6.650;2022-08-19T04:36:38;45278.31;;;-141.29;94.88
22025;BME280;11176;51.448;6.650;2022-08-19T04:39:10;45270.34;;;-141.29;95.02
22025;BME280;11176;51.448;6.650;2022-08-19T04:41:36;45266.34;;;-141.29;95.10
22025;BME280;11176;51.448;6.650;2022-08-19T04:44:22;45266.34;;;-141.29;95.29
22025;BME280;11176;51.448;6.650;2022-08-19T04:46:49;45272.34;;;-141.29;95.43
22025;BME280;11176;51.448;6.650;2022-08-19T04:49:22;45268.34;;;-141.29;95.79
22025;BME280;11176;51.448;6.650;2022-08-19T04:51:51;45278.31;;;-141.29;96.07
22025;BME280;11176;51.448;6.650;2022-08-19T04:54:23;45268.34;;;-141.29;96.60
22025;BME280;11176;51.448;6.650;2022-08-19T04:57:06;45268.34;;;-141.29;96.40
22025;BME280;11176;51.448;6.650;2022-08-19T04:59:35;45262.34;;;-141.29;96.37
22025;BME280;11176;51.448;6.650;2022-08-19T05:02:03;45268.34;;;-141.29;96.49
22025;BME280;11176;51.448;6.650;2022-08-19T05:04:30;45282.31;;;-141.29;96.53
22025;BME280;11176;51.448;6.650;2022-08-19T05:06:59;45266.34;;;-141.29;96.78
22025;BME280;11176;51.448;6.650;2022-08-19T05:09:28;45278.31;;;-141.29;96.82
22025;BME280;11176;51.448;6.650;2022-08-19T05:12:15;45274.34;;;-141.29;96.94
22025;BME280;11176;51.448;6.650;2022-08-19T05:14:42;45270.34;;;-141.29;96.98
22025;BME280;11176;51.448;6.650;2022-08-19T05:17:09;45258.34;;;-141.29;96.89
22025;BME280;11176;51.448;6.650;2022-08-19T05:19:54;45280.31;;;-141.29;96.79
22025;BME280;11176;51.448;6.650;2022-08-19T05:22:40;45282.31;;;-141.29;96.44
22025;BME280;11176;51.448;6.650;2022-08-19T05:25:10;45262.34;;;-141.29;96.49
22025;BME280;11176;51.448;6.650;2022-08-19T05:27:40;45256.34;;;-141.29;96.11
22025;BME280;11176;51.448;6.650;2022-08-19T05:30:09;45266.34;;;-141.29;96.04
22025;BME280;11176;51.448;6.650;2022-08-19T05:32:36;45270.34;;;-141.29;95.84
22025;BME280;11176;51.448;6.650;2022-08-19T05:35:03;45260.34;;;-141.29;95.58
22025;BME280;11176;51.448;6.650;2022-08-19T05:37:30;45254.34;;;-141.29;95.31
22025;BME280;11176;51.448;6.650;2022-08-19T05:39:56;45256.34;;;-141.29;94.93
22025;BME280;11176;51.448;6.650;2022-08-19T05:42:23;45258.34;;;-141.29;94.54
22025;BME280;11176;51.448;6.650;2022-08-19T05:44:50;45246.34;;;-141.29;94.25
22025;BME280;11176;51.448;6.650;2022-08-19T05:47:17;45254.34;;;-141.29;94.07
22025;BME280;11176;51.448;6.650;2022-08-19T05:49:46;45256.34;;;-141.29;94.01
22025;BME280;11176;51.448;6.650;2022-08-19T05:52:14;45258.34;;;-141.29;93.69
22025;BME280;11176;51.448;6.650;2022-08-19T05:54:45;45260.34;;;-141.29;93.59
22025;BME280;11176;51.448;6.650;2022-08-19T05:57:18;45266.34;;;-141.29;93.79
22025;BME280;11176;51.448;6.650;2022-08-19T05:59:44;45282.31;;;-141.29;93.70
22025;BME280;11176;51.448;6.650;2022-08-19T06:02:26;45252.34;;;-141.29;93.82
22025;BME280;11176;51.448;6.650;2022-08-19T06:04:53;45262.34;;;-141.29;94.12
22025;BME280;11176;51.448;6.650;2022-08-19T06:07:20;45262.34;;;-141.29;94.66
22025;BME280;11176;51.448;6.650;2022-08-19T06:09:46;45252.34;;;-141.29;94.92
22025;BME280;11176;51.448;6.650;2022-08-19T06:12:30;45260.34;;;-141.29;95.05
22025;BME280;11176;51.448;6.650;2022-08-19T06:15:00;45266.34;;;-141.29;95.10
22025;BME280;11176;51.448;6.650;2022-08-19T06:17:31;45254.34;;;-141.29;95.33
22025;BME280;11176;51.448;6.650;2022-08-19T06:19:58;45254.34;;;-141.29;95.08
22025;BME280;11176;51.448;6.650;2022-08-19T06:22:25;45266.34;;;-141.29;95.02
22025;BME280;11176;51.448;6.650;2022-08-19T06:24:53;45270.34;;;-141.29;94.48
22025;BME280;11176;51.448;6.650;2022-08-19T06:27:20;45254.34;;;-141.29;94.46
22025;BME280;11176;51.448;6.650;2022-08-19T06:29:47;45262.34;;;-141.29;94.54
22025;BME280;11176;51.448;6.650;2022-08-19T06:32:15;45250.34;;;-141.29;94.69
22025;BME280;11176;51.448;6.650;2022-08-19T06:34:42;45250.34;;;-141.29;94.64
22025;BME280;11176;51.448;6.650;2022-08-19T06:37:10;45246.34;;;-141.29;94.55
22025;BME280;11176;51.448;6.650;2022-08-19T06:39:39;45250.34;;;-141.29;94.33
22025;BME280;11176;51.448;6.650;2022-08-19T06:42:07;45266.34;;;-141.29;94.33
22025;BME280;11176;51.448;6.650;2022-08-19T06:44:38;45248.34;;;-141.29;94.05
22025;BME280;11176;51.448;6.650;2022-08-19T06:47:11;45248.34;;;-141.29;93.80
22025;BME280;11176;51.448;6.650;2022-08-19T06:49:40;45260.34;;;-141.29;93.79
22025;BME280;11176;51.448;6.650;2022-08-19T06:52:08;45254.34;;;-141.29;93.90
22025;BME280;11176;51.448;6.650;2022-08-19T06:54:40;45254.34;;;-141.29;94.01
22025;BME280;11176;51.448;6.650;2022-08-19T06:57:23;45250.34;;;-141.29;93.88
22025;BME280;11176;51.448;6.650;2022-08-19T06:59:50;45244.34;;;-141.29;94.06
22025;BME280;11176;51.448;6.650;2022-08-19T07:02:16;45238.38;;;-141.29;93.68
22025;BME280;11176;51.448;6.650;2022-08-19T07:04:44;45254.34;;;-141.29;93.39
22025;BME280;11176;51.448;6.650;2022-08-19T07:07:13;45242.34;;;-141.29;93.33
22025;BME280;11176;51.448;6.650;2022-08-19T07:09:47;45246.34;;;-141.29;93.18
22025;BME280;11176;51.448;6.650;2022-08-19T07:12:31;45246.34;;;-141.29;92.94
22025;BME280;11176;51.448;6.650;2022-08-19T07:15:02;45254.34;;;-141.29;92.76
22025;BME280;11176;51.448;6.650;2022-08-19T07:17:29;45238.38;;;-141.29;92.39
22025;BME280;11176;51.448;6.650;2022-08-19T07:19:56;45266.34;;;-141.29;91.89
22025;BME280;11176;51.448;6.650;2022-08-19T07:22:30;45246.34;;;-141.29;91.50
22025;BME280;11176;51.448;6.650;2022-08-19T07:24:57;45250.34;;;-141.29;91.34
22025;BME280;11176;51.448;6.650;2022-08-19T07:27:24;45260.34;;;-141.29;90.98
22025;BME280;11176;51.448;6.650;2022-08-19T07:29:52;45238.38;;;-141.29;90.34
22025;BME280;11176;51.448;6.650;2022-08-19T07:32:24;45226.38;;;-141.29;89.72
22025;BME280;11176;51.448;6.650;2022-08-19T07:34:55;45242.34;;;-141.29;89.54
22025;BME280;11176;51.448;6.650;2022-08-19T07:37:23;45230.38;;;-141.29;88.98
22025;BME280;11176;51.448;6.650;2022-08-19T07:39:58;45210.38;;;-141.29;88.21
22025;BME280;11176;51.448;6.650;2022-08-19T07:42:25;45206.38;;;-141.29;87.95
22025;BME280;11176;51.448;6.650;2022-08-19T07:44:51;45226.38;;;-141.29;87.49
22025;BME280;11176;51.448;6.650;2022-08-19T07:47:18;45224.38;;;-141.29;87.08
22025;BME280;11176;51.448;6.650;2022-08-19T07:50:07;45230.38;;;-141.29;86.25
22025;BME280;11176;51.448;6.650;2022-08-19T07:52:36;45216.38;;;-141.29;86.16
22025;BME280;11176;51.448;6.650;2022-08-19T07:55:06;45222.38;;;-141.29;85.77
22025;BME280;11176;51.448;6.650;2022-08-19T07:57:53;45228.38;;;-141.29;84.66
22025;BME280;11176;51.448;6.650;2022-08-19T08:00:20;45210.38;;;-141.29;84.00
22025;BME280;11176;51.448;6.650;2022-08-19T08:02:50;45210.38;;;-141.29;82.90
22025;BME280;11176;51.448;6.650;2022-08-19T08:05:20;45214.38;;;-141.29;82.46
22025;BME280;11176;51.448;6.650;2022-08-19T08:08:10;45216.38;;;-141.29;81.69
22025;BME280;11176;51.448;6.650;2022-08-19T08:11:14;45214.38;;;-141.29;81.43
22025;BME280;11176;51.448;6.650;2022-08-19T08:13:43;45214.38;;;-141.29;80.84
22025;BME280;11176;51.448;6.650;2022-08-19T08:16:09;45214.38;;;-141.29;80.41
22025;BME280;11176;51.448;6.650;2022-08-19T08:18:39;45214.38;;;-141.29;79.92
22025;BME280;11176;51.448;6.650;2022-08-19T08:21:08;45222.38;;;-141.29;79.64
22025;BME280;11176;51.448;6.650;2022-08-19T08:23:35;45206.38;;;-141.29;79.32
22025;BME280;11176;51.448;6.650;2022-08-19T08:26:05;45198.41;;;-141.29;79.01
22025;BME280;11176;51.448;6.650;2022-08-19T08:28:31;45206.38;;;-141.29;78.86
22025;BME280;11176;51.448;6.650;2022-08-19T08:30:58;45198.41;;;-141.29;78.69
22025;BME280;11176;51.448;6.650;2022-08-19T08:33:27;45202.38;;;-141.29;78.26
22025;BME280;11176;51.448;6.650;2022-08-19T08:36:07;45196.41;;;-141.29;78.39
22025;BME280;11176;51.448;6.650;2022-08-19T08:38:35;45210.38;;;-141.29;77.90
22025;BME280;11176;51.448;6.650;2022-08-19T08:41:28;45184.41;;;-141.29;76.89
22025;BME280;11176;51.448;6.650;2022-08-19T08:43:57;45210.38;;;-141.29;73.35
22025;BME280;11176;51.448;6.650;2022-08-19T08:46:32;45194.41;;;-141.29;73.79
22025;BME280;11176;51.448;6.650;2022-08-19T08:51:52;45190.41;;;-141.29;73.98
22025;BME280;11176;51.448;6.650;2022-08-19T08:54:33;45182.41;;;-141.29;74.31
22025;BME280;11176;51.448;6.650;2022-08-19T08:57:04;45190.41;;;-141.29;73.58
22025;BME280;11176;51.448;6.650;2022-08-19T08:59:37;45182.41;;;-141.29;72.61
22025;BME280;11176;51.448;6.650;2022-08-19T09:02:05;45176.41;;;-141.29;71.85
22025;BME280;11176;51.448;6.650;2022-08-19T09:04:37;45198.41;;;-141.29;70.52
22025;BME280;11176;51.448;6.650;2022-08-19T09:13:01;45170.41;;;-141.29;67.86
22025;BME280;11176;51.448;6.650;2022-08-19T09:15:39;45188.41;;;-141.29;67.87
22025;BME280;11176;51.448;6.650;2022-08-19T09:18:08;45174.41;;;-141.29;67.25
22025;BME280;11176;51.448;6.650;2022-08-19T09:20:40;45170.41;;;-141.29;67.22
22025;BME280;11176;51.448;6.650;2022-08-19T09:23:08;45182.41;;;-141.29;67.37
22025;BME280;11176;51.448;6.650;2022-08-19T09:25:36;45172.41;;;-141.29;66.64
22025;BME280;11176;51.448;6.650;2022-08-19T09:28:03;45176.41;;;-141.29;65.74
22025;BME280;11176;51.448;6.650;2022-08-19T09:30:41;45162.44;;;-141.29;64.53
22025;BME280;11176;51.448;6.650;2022-08-19T09:33:08;45162.44;;;-141.29;63.53
22025;BME280;11176;51.448;6.650;2022-08-19T09:35:35;45166.44;;;-141.29;63.80
22025;BME280;11176;51.448;6.650;2022-08-19T09:38:15;45166.44;;;-141.29;63.66
22025;BME280;11176;51.448;6.650;2022-08-19T09:40:42;45174.41;;;-141.29;63.90
22025;BME280;11176;51.448;6.650;2022-08-19T09:43:08;45172.41;;;-141.29;63.89
22025;BME280;11176;51.448;6.650;2022-08-19T09:45:39;45168.41;;;-141.29;63.68
22025;BME280;11176;51.448;6.650;2022-08-19T09:48:05;45176.41;;;-141.29;63.85
22025;BME280;11176;51.448;6.650;2022-08-19T09:50:32;45170.41;;;-141.29;63.42
22025;BME280;11176;51.448;6.650;2022-08-19T09:53:01;45182.41;;;-141.29;63.55
22025;BME280;11176;51.448;6.650;2022-08-19T09:55:27;45160.44;;;-141.29;63.07
22025;BME280;11176;51.448;6.650;2022-08-19T09:57:59;45158.44;;;-141.29;62.47
22025;BME280;11176;51.448;6.650;2022-08-19T10:00:26;45160.44;;;-141.29;61.88
22025;BME280;11176;51.448;6.650;2022-08-19T10:02:52;45152.44;;;-141.29;61.75
22025;BME280;11176;51.448;6.650;2022-08-19T10:05:19;45156.44;;;-141.29;60.81
22025;BME280;11176;51.448;6.650;2022-08-19T10:08:08;45150.44;;;-141.29;60.74
22025;BME280;11176;51.448;6.650;2022-08-19T10:10:42;45154.44;;;-141.29;59.43
22025;BME280;11176;51.448;6.650;2022-08-19T10:13:15;45166.44;;;-141.29;59.61
22025;BME280;11176;51.448;6.650;2022-08-19T10:15:43;45162.44;;;-141.29;59.71
22025;BME280;11176;51.448;6.650;2022-08-19T10:18:14;45140.44;;;-141.29;58.07
22025;BME280;11176;51.448;6.650;2022-08-19T10:20:40;45158.44;;;-141.29;58.39
22025;BME280;11176;51.448;6.650;2022-08-19T10:23:09;45164.44;;;-141.29;57.62
22025;BME280;11176;51.448;6.650;2022-08-19T10:25:35;45146.44;;;-141.29;56.94
22025;BME280;11176;51.448;6.650;2022-08-19T10:28:04;45158.44;;;-141.29;56.90
22025;BME280;11176;51.448;6.650;2022-08-19T10:30:36;45144.44;;;-141.29;57.14
22025;BME280;11176;51.448;6.650;2022-08-19T10:33:03;45150.44;;;-141.29;56.82
22025;BME280;11176;51.448;6.650;2022-08-19T10:35:36;45142.44;;;-141.29;56.37
22025;BME280;11176;51.448;6.650;2022-08-19T10:38:21;45158.44;;;-141.29;55.32
22025;BME280;11176;51.448;6.650;2022-08-19T10:40:57;45134.44;;;-141.29;55.19
22025;BME280;11176;51.448;6.650;2022-08-19T10:43:24;45132.44;;;-141.29;55.04
22025;BME280;11176;51.448;6.650;2022-08-19T10:45:54;45134.44;;;-141.29;55.49
22025;BME280;11176;51.448;6.650;2022-08-19T10:48:22;45132.44;;;-141.29;54.18
22025;BME280;11176;51.448;6.650;2022-08-19T10:50:49;45130.44;;;-141.29;53.60
22025;BME280;11176;51.448;6.650;2022-08-19T10:53:34;45122.47;;;-141.29;52.30
22025;BME280;11176;51.448;6.650;2022-08-19T10:56:01;45128.47;;;-141.29;53.46
22025;BME280;11176;51.448;6.650;2022-08-19T10:58:46;45130.44;;;-141.29;53.50
22025;BME280;11176;51.448;6.650;2022-08-19T11:01:12;45122.47;;;-141.29;53.56
22025;BME280;11176;51.448;6.650;2022-08-19T11:03:39;45122.47;;;-141.29;51.83
22025;BME280;11176;51.448;6.650;2022-08-19T11:06:07;45114.47;;;-141.29;51.77
22025;BME280;11176;51.448;6.650;2022-08-19T11:08:35;45134.44;;;-141.29;51.63
22025;BME280;11176;51.448;6.650;2022-08-19T11:11:05;45136.44;;;-141.29;50.61
22025;BME280;11176;51.448;6.650;2022-08-19T11:13:35;45126.47;;;-141.29;51.73
22025;BME280;11176;51.448;6.650;2022-08-19T11:18:35;45108.47;;;-141.29;49.90
22025;BME280;11176;51.448;6.650;2022-08-19T11:23:48;45110.47;;;-141.29;49.07
22025;BME280;11176;51.448;6.650;2022-08-19T11:26:16;45110.47;;;-141.29;46.79
22025;BME280;11176;51.448;6.650;2022-08-19T11:28:44;45082.50;;;-141.29;46.28
22025;BME280;11176;51.448;6.650;2022-08-19T11:31:16;45074.50;;;-141.29;44.62
22025;BME280;11176;51.448;6.650;2022-08-19T11:33:43;45082.50;;;-141.29;42.50
22025;BME280;11176;51.448;6.650;2022-08-19T11:36:13;45064.50;;;-141.29;42.69
22025;BME280;11176;51.448;6.650;2022-08-19T11:38:40;45062.50;;;-141.29;39.44
22025;BME280;11176;51.448;6.650;2022-08-19T11:41:07;45050.53;;;-141.29;40.02
22025;BME280;11176;51.448;6.650;2022-08-19T11:43:35;45052.53;;;-141.29;40.19
22025;BME280;11176;51.448;6.650;2022-08-19T11:46:05;45030.53;;;-141.29;38.96
22025;BME280;11176;51.448;6.650;2022-08-19T11:48:33;45034.53;;;-141.29;37.13
22025;BME280;11176;51.448;6.650;2022-08-19T11:51:04;45012.56;;;-141.29;35.33
22025;BME280;11176;51.448;6.650;2022-08-19T11:53:33;45006.56;;;-141.29;35.48
22025;BME280;11176;51.448;6.650;2022-08-19T11:56:00;45002.56;;;-141.29;35.39
22025;BME280;11176;51.448;6.650;2022-08-19T11:58:27;44998.56;;;-141.29;33.85
22025;BME280;11176;51.448;6.650;2022-08-19T12:00:53;44996.56;;;-141.29;33.73
22025;BME280;11176;51.448;6.650;2022-08-19T12:03:20;45002.56;;;-141.29;33.00
22025;BME280;11176;51.448;6.650;2022-08-19T12:05:47;44988.59;;;-141.29;32.50
22025;BME280;11176;51.448;6.650;2022-08-19T12:08:13;44980.59;;;-141.29;31.64
22025;BME280;11176;51.448;6.650;2022-08-19T12:10:42;44990.59;;;-141.29;29.93
22025;BME280;11176;51.448;6.650;2022-08-19T12:13:12;44978.59;;;-141.29;30.48
22025;BME280;11176;51.448;6.650;2022-08-19T12:15:46;44980.59;;;-141.29;29.87
22025;BME280;11176;51.448;6.650;2022-08-19T12:18:13;44974.59;;;-141.29;29.70
22025;BME280;11176;51.448;6.650;2022-08-19T12:20:42;44970.59;;;-141.29;29.20
22025;BME280;11176;51.448;6.650;2022-08-19T12:23:09;44962.59;;;-141.29;28.69
22025;BME280;11176;51.448;6.650;2022-08-19T12:25:37;44958.59;;;-141.29;28.93
22025;BME280;11176;51.448;6.650;2022-08-19T12:28:09;44956.63;;;-141.29;28.37
22025;BME280;11176;51.448;6.650;2022-08-19T12:30:37;44950.63;;;-141.29;27.96
22025;BME280;11176;51.448;6.650;2022-08-19T12:33:04;44948.63;;;-141.29;27.48
22025;BME280;11176;51.448;6.650;2022-08-19T12:35:30;44942.63;;;-141.29;27.23
22025;BME280;11176;51.448;6.650;2022-08-19T12:37:57;44954.63;;;-141.29;27.02
22025;BME280;11176;51.448;6.650;2022-08-19T12:40:24;44942.63;;;-141.29;26.85
22025;BME280;11176;51.448;6.650;2022-08-19T12:42:53;44930.63;;;-141.29;26.88
22025;BME280;11176;51.448;6.650;2022-08-19T12:45:19;44942.63;;;-141.29;27.44
22025;BME280;11176;51.448;6.650;2022-08-19T12:47:46;44942.63;;;-141.29;26.53
22025;BME280;11176;51.448;6.650;2022-08-19T12:50:13;44926.63;;;-141.29;26.78
22025;BME280;11176;51.448;6.650;2022-08-19T12:52:39;44946.63;;;-141.29;26.69
22025;BME280;11176;51.448;6.650;2022-08-19T12:55:09;44956.63;;;-141.29;26.98
22025;BME280;11176;51.448;6.650;2022-08-19T12:57:35;44954.63;;;-141.29;26.89
22025;BME280;11176;51.448;6.650;2022-08-19T13:00:08;44946.63;;;-141.29;27.14
22025;BME280;11176;51.448;6.650;2022-08-19T13:02:40;44956.63;;;-141.29;26.88
22025;BME280;11176;51.448;6.650;2022-08-19T13:05:09;44948.63;;;-141.29;26.91
22025;BME280;11176;51.448;6.650;2022-08-19T13:07:38;44950.63;;;-141.29;26.71
22025;BME280;11176;51.448;6.650;2022-08-19T13:10:10;44950.63;;;-141.29;26.88